Time;durP1;ratioP1;P1;durP2;ratioP2;P2;SDS_P1;SDS_P2;PMS_P1;PMS_P2;Temp;Humidity;BMP_temperature;BMP_pressure;BME280_temperature;BME280_humidity;BME280_pressure;Samples;Min_cycle;Max_cycle;Signal;HPM_P1;HPM_P2
2023/07/20 00:00:08;;;;;;;9.20;4.65;;;;;;;19.13;95.70;101263.66;5113816;28;20373;-64
2023/07/20 00:02:44;;;;;;;10.48;4.70;;;;;;;19.04;96.88;101266.34;5115573;28;20051;-65
2023/07/20 00:05:12;;;;;;;9.80;4.97;;;;;;;18.97;97.76;101274.25;5113344;28;20040;-64
2023/07/20 00:07:39;;;;;;;12.00;5.25;;;;;;;18.87;98.86;101277.28;5115473;28;20048;-64
2023/07/20 00:10:08;;;;;;;9.45;4.93;;;;;;;18.82;100.00;101260.84;5116825;28;20040;-65
2023/07/20 00:12:36;;;;;;;12.77;6.03;;;;;;;18.84;100.00;101269.63;5108615;28;20455;-64
2023/07/20 00:15:04;;;;;;;8.68;4.38;;;;;;;18.84;100.00;101261.34;5099698;28;20055;-65
2023/07/20 00:17:32;;;;;;;10.73;4.72;;;;;;;18.85;100.00;101265.72;5098948;28;20043;-65
2023/07/20 00:20:00;;;;;;;9.48;5.18;;;;;;;18.83;100.00;101276.25;5114103;28;20051;-63
2023/07/20 00:22:28;;;;;;;9.48;4.53;;;;;;;18.79;100.00;101265.03;5113883;28;20044;-65
2023/07/20 00:24:55;;;;;;;13.85;5.28;;;;;;;18.76;100.00;101267.56;5113477;28;20040;-63
2023/07/20 00:27:23;;;;;;;10.63;5.30;;;;;;;18.73;100.00;101264.31;5112915;28;20553;-64
2023/07/20 00:29:52;;;;;;;9.73;5.07;;;;;;;18.70;100.00;101262.16;5114032;28;20096;-65
2023/07/20 00:32:20;;;;;;;11.02;4.93;;;;;;;18.71;100.00;101266.59;5114028;28;20495;-65
2023/07/20 00:34:48;;;;;;;9.73;4.90;;;;;;;18.72;100.00;101265.44;5092855;28;20044;-64
2023/07/20 00:37:16;;;;;;;9.65;4.90;;;;;;;18.74;100.00;101268.72;5110831;28;20047;-64
2023/07/20 00:39:44;;;;;;;7.80;4.35;;;;;;;18.76;100.00;101262.03;5112485;28;20050;-64
2023/07/20 00:42:11;;;;;;;11.10;5.93;;;;;;;18.72;100.00;101265.44;5096121;28;20052;-64
2023/07/20 00:44:39;;;;;;;11.38;5.03;;;;;;;18.68;100.00;101263.63;5110994;28;20051;-65
2023/07/20 00:47:07;;;;;;;9.90;5.90;;;;;;;18.65;100.00;101276.09;5111377;28;20062;-65
2023/07/20 00:49:35;;;;;;;12.73;5.88;;;;;;;18.53;100.00;101273.06;5100697;28;20056;-65
2023/07/20 00:52:06;;;;;;;13.65;5.18;;;;;;;18.46;100.00;101262.44;5111297;28;20040;-65
2023/07/20 00:54:36;;;;;;;11.77;5.90;;;;;;;18.43;100.00;101265.84;5109340;28;20107;-66
2023/07/20 00:57:05;;;;;;;9.85;5.43;;;;;;;18.39;100.00;101269.53;5096035;28;20044;-64
2023/07/20 00:59:36;;;;;;;9.50;5.25;;;;;;;18.40;100.00;101271.16;5113304;28;20051;-65
2023/07/20 01:02:04;;;;;;;14.82;6.07;;;;;;;18.38;100.00;101273.41;5095807;28;20517;-64
2023/07/20 01:04:33;;;;;;;11.18;5.97;;;;;;;18.38;100.00;101273.41;5096291;28;20398;-65
2023/07/20 01:07:13;;;;;;;9.88;6.40;;;;;;;18.39;100.00;101272.28;5110427;28;20053;-66
2023/07/20 01:10:26;;;;;;;14.40;6.47;;;;;;;18.39;100.00;101272.28;5106572;27;20058;-65
2023/07/20 01:12:55;;;;;;;12.90;6.57;;;;;;;18.40;100.00;101276.66;5104023;28;20055;-62
2023/07/20 01:15:24;;;;;;;10.02;6.10;;;;;;;18.36;100.00;101278.44;5087980;28;20044;-65
2023/07/20 01:17:52;;;;;;;11.05;6.50;;;;;;;18.36;100.00;101283.94;5104599;28;20044;-65
2023/07/20 01:20:22;;;;;;;10.15;6.18;;;;;;;18.35;100.00;101277.63;5095651;28;20048;-65
2023/07/20 01:23:26;;;;;;;12.95;6.38;;;;;;;18.36;100.00;101283.94;5094380;28;20048;-65
2023/07/20 01:26:00;;;;;;;13.20;6.60;;;;;;;18.33;100.00;101273.50;5105174;28;20047;-65
2023/07/20 01:29:05;;;;;;;11.63;6.40;;;;;;;18.30;100.00;101284.06;5064222;28;20466;-65
2023/07/20 01:31:35;;;;;;;12.30;7.10;;;;;;;18.28;100.00;101286.31;5102586;28;20044;-63
2023/07/20 01:34:04;;;;;;;10.73;6.47;;;;;;;18.26;100.00;101280.28;5090877;28;20054;-64
2023/07/20 01:36:35;;;;;;;11.63;6.57;;;;;;;18.28;100.00;101283.56;5094765;28;20495;-63
2023/07/20 01:39:04;;;;;;;12.45;6.95;;;;;;;18.25;100.00;101281.38;5112042;28;20055;-64
2023/07/20 01:41:32;;;;;;;15.10;7.18;;;;;;;18.24;100.00;101290.81;5109697;28;20062;-64
2023/07/20 01:44:00;;;;;;;12.20;7.75;;;;;;;18.19;100.00;101288.16;5098912;28;20077;-64
2023/07/20 01:46:28;;;;;;;11.20;7.40;;;;;;;18.05;100.00;101281.81;5111847;28;20714;-66
2023/07/20 01:48:57;;;;;;;13.75;8.05;;;;;;;17.95;100.00;101284.81;5104183;28;20384;-65
2023/07/20 01:51:24;;;;;;;11.60;7.75;;;;;;;17.89;100.00;101281.31;5111069;28;20049;-65
2023/07/20 01:53:52;;;;;;;12.40;7.63;;;;;;;17.93;100.00;101281.53;5112162;28;20047;-64
2023/07/20 01:56:20;;;;;;;12.10;7.28;;;;;;;17.98;100.00;101289.69;5116248;28;20044;-64
2023/07/20 01:58:48;;;;;;;12.05;6.68;;;;;;;18.01;100.00;101289.06;5134988;27;20047;-62
2023/07/20 02:01:16;;;;;;;14.23;7.43;;;;;;;18.05;100.00;101284.59;5077393;28;20108;-64
2023/07/20 02:03:44;;;;;;;11.80;7.28;;;;;;;18.07;100.00;101285.09;5111406;28;20127;-62
2023/07/20 02:06:12;;;;;;;12.77;7.43;;;;;;;18.05;100.00;101295.63;5101404;28;20040;-65
2023/07/20 02:08:40;;;;;;;12.65;7.72;;;;;;;18.03;100.00;101293.16;5101450;28;20054;-63
2023/07/20 02:11:09;;;;;;;11.38;7.60;;;;;;;18.04;100.00;101294.00;5114039;28;20119;-62
2023/07/20 02:13:37;;;;;;;12.77;7.53;;;;;;;17.99;100.00;101289.41;5128307;28;20092;-64
2023/07/20 02:16:05;;;;;;;11.07;6.95;;;;;;;17.87;100.00;101294.56;5122043;28;20585;-62
2023/07/20 02:18:33;;;;;;;11.10;7.25;;;;;;;17.83;100.00;101294.38;5116918;28;20048;-63
2023/07/20 02:21:01;;;;;;;11.93;6.93;;;;;;;17.83;100.00;101294.38;5133356;27;20050;-64
2023/07/20 02:23:29;;;;;;;13.32;7.38;;;;;;;17.84;100.00;101289.69;5116506;28;20042;-64
2023/07/20 02:25:57;;;;;;;11.82;6.43;;;;;;;17.79;100.00;101298.84;5116453;28;20088;-64
2023/07/20 02:28:25;;;;;;;10.35;6.25;;;;;;;17.79;100.00;101298.84;5115522;28;20063;-64
2023/07/20 02:30:53;;;;;;;9.70;6.47;;;;;;;17.83;100.00;101297.16;5099440;28;20050;-64
2023/07/20 02:33:21;;;;;;;12.00;6.45;;;;;;;17.81;100.00;101296.63;5115442;28;20071;-65
2023/07/20 02:35:49;;;;;;;12.93;6.82;;;;;;;17.79;100.00;101307.09;5117913;28;20035;-63
2023/07/20 02:38:18;;;;;;;9.52;6.10;;;;;;;17.81;100.00;101307.66;5114121;28;20039;-64
2023/07/20 02:40:46;;;;;;;10.02;5.82;;;;;;;17.81;100.00;101307.66;5116539;28;20052;-65
2023/07/20 02:43:14;;;;;;;9.00;5.45;;;;;;;17.76;100.00;101313.25;5114060;28;20047;-66
2023/07/20 02:45:45;;;;;;;11.23;5.50;;;;;;;17.74;100.00;101307.22;5116730;27;20048;-65
2023/07/20 02:48:14;;;;;;;8.73;5.20;;;;;;;17.62;100.00;101309.66;5116617;28;20044;-64
2023/07/20 02:50:44;;;;;;;9.00;4.93;;;;;;;17.54;100.00;101307.59;5112954;28;20043;-65
2023/07/20 02:53:12;;;;;;;12.15;5.50;;;;;;;17.54;100.00;101307.59;5111264;28;20066;-66
2023/07/20 02:55:40;;;;;;;10.80;6.03;;;;;;;17.54;100.00;101318.63;5116665;28;20052;-64
2023/07/20 02:58:08;;;;;;;10.82;5.80;;;;;;;17.52;100.00;101324.41;5095369;28;20047;-65
2023/07/20 03:00:36;;;;;;;10.48;6.00;;;;;;;17.55;100.00;101321.06;5114490;28;20043;-63
2023/07/20 03:03:03;;;;;;;11.68;7.00;;;;;;;17.59;100.00;101324.84;5112240;28;20036;-65
2023/07/20 03:05:32;;;;;;;11.95;7.75;;;;;;;17.63;100.00;101331.41;5111208;28;20058;-65
2023/07/20 03:08:02;;;;;;;11.55;6.78;;;;;;;17.62;100.00;101335.25;5115209;28;20483;-63
2023/07/20 03:10:30;;;;;;;12.13;7.00;;;;;;;17.64;100.00;101329.44;5113238;28;20051;-65
2023/07/20 03:12:58;;;;;;;14.52;7.15;;;;;;;17.65;100.00;101337.44;5114250;28;20099;-65
2023/07/20 03:15:26;;;;;;;13.23;7.45;;;;;;;17.64;100.00;101335.78;5078421;28;20051;-65
2023/07/20 03:17:54;;;;;;;10.40;6.75;;;;;;;17.62;100.00;101338.00;5116726;28;20051;-64
2023/07/20 03:20:22;;;;;;;10.20;6.05;;;;;;;17.61;100.00;101346.59;5081113;28;20051;-64
2023/07/20 03:22:50;;;;;;;10.27;6.97;;;;;;;17.60;100.00;101350.47;5112666;28;20048;-66
2023/07/20 03:25:19;;;;;;;11.27;6.47;;;;;;;17.60;100.00;101347.69;5112678;28;20411;-64
2023/07/20 03:27:47;;;;;;;11.65;7.20;;;;;;;17.57;100.00;101345.56;5102516;28;20060;-64
2023/07/20 03:30:16;;;;;;;11.45;6.70;;;;;;;17.54;100.00;101340.66;5063241;28;20045;-64
2023/07/20 03:32:44;;;;;;;11.70;6.60;;;;;;;17.49;100.00;101340.75;5105065;28;20050;-65
2023/07/20 03:35:12;;;;;;;11.90;6.57;;;;;;;17.45;100.00;101343.28;5097970;28;20044;-64
2023/07/20 03:37:40;;;;;;;10.05;6.20;;;;;;;17.41;100.00;101348.59;5080979;28;20050;-65
2023/07/20 03:40:09;;;;;;;9.15;5.75;;;;;;;17.42;100.00;101350.22;5098221;28;20058;-65
2023/07/20 03:42:38;;;;;;;9.48;5.68;;;;;;;17.43;100.00;101351.84;5115519;28;20040;-64
2023/07/20 03:45:07;;;;;;;11.10;6.00;;;;;;;17.43;100.00;101354.59;5064341;28;20496;-65
2023/07/20 03:47:35;;;;;;;10.40;6.35;;;;;;;17.43;100.00;101362.03;5091493;28;20044;-66
2023/07/20 03:50:05;;;;;;;10.57;5.95;;;;;;;17.39;100.00;101356.34;5061039;28;20051;-64
2023/07/20 03:52:33;;;;;;;11.93;6.10;;;;;;;17.39;100.00;101361.00;5106028;28;20096;-65
2023/07/20 03:55:01;;;;;;;10.45;5.50;;;;;;;17.37;100.00;101361.31;5079956;28;20048;-65
2023/07/20 03:57:32;;;;;;;9.68;6.05;;;;;;;17.36;100.00;101362.41;5079887;28;20077;-64
2023/07/20 04:00:00;;;;;;;8.15;5.07;;;;;;;17.35;100.00;101360.00;5115108;28;20054;-63
2023/07/20 04:02:28;;;;;;;8.18;5.40;;;;;;;17.33;100.00;101359.47;5096781;28;20046;-62
2023/07/20 04:04:56;;;;;;;9.07;5.13;;;;;;;17.36;100.00;101367.13;5095971;28;20402;-64
2023/07/20 04:07:24;;;;;;;14.48;5.47;;;;;;;17.34;100.00;101353.66;5113811;28;20040;-65
2023/07/20 04:09:52;;;;;;;9.25;5.45;;;;;;;17.34;100.00;101361.94;5109701;28;20047;-65
2023/07/20 04:12:20;;;;;;;10.30;5.43;;;;;;;17.34;100.00;101361.09;5075290;28;20054;-65
2023/07/20 04:14:48;;;;;;;11.88;6.38;;;;;;;17.29;100.00;101362.00;5078862;28;20036;-65
2023/07/20 04:17:16;;;;;;;13.85;6.38;;;;;;;17.28;100.00;101365.06;5067541;28;20068;-64
2023/07/20 04:19:44;;;;;;;9.18;5.85;;;;;;;17.25;100.00;101364.53;5082035;28;20043;-64
2023/07/20 04:22:11;;;;;;;13.05;5.53;;;;;;;17.24;100.00;101364.81;5107090;28;20491;-64
2023/07/20 04:24:40;;;;;;;8.57;5.43;;;;;;;17.23;100.00;101361.25;5078598;28;20057;-64
2023/07/20 04:27:08;;;;;;;10.13;5.85;;;;;;;17.23;100.00;101363.19;5080821;28;20038;-65
2023/07/20 04:29:37;;;;;;;10.60;5.95;;;;;;;17.18;100.00;101371.53;5068558;28;20052;-64
2023/07/20 04:32:05;;;;;;;8.32;4.80;;;;;;;17.15;100.00;101369.38;5113304;28;20050;-63
2023/07/20 04:34:37;;;;;;;10.20;5.60;;;;;;;17.12;100.00;101372.72;5113906;28;20042;-63
2023/07/20 04:37:05;;;;;;;10.07;5.50;;;;;;;17.10;100.00;101380.47;5110733;28;20092;-64
2023/07/20 04:39:33;;;;;;;10.43;5.28;;;;;;;17.08;100.00;101377.19;5112320;28;20044;-65
2023/07/20 04:42:06;;;;;;;8.60;5.18;;;;;;;17.07;100.00;101381.06;5091364;28;20048;-65
2023/07/20 04:44:34;;;;;;;9.98;5.68;;;;;;;17.03;100.00;101375.34;5106554;28;20048;-65
2023/07/20 04:47:03;;;;;;;11.63;5.38;;;;;;;17.02;100.00;101381.97;5099097;28;20474;-63
2023/07/20 04:49:35;;;;;;;12.80;5.47;;;;;;;17.03;100.00;101375.34;5113396;28;20044;-65
2023/07/20 04:52:03;;;;;;;11.13;5.30;;;;;;;17.03;100.00;101381.69;5093155;28;20375;-64
2023/07/20 04:54:32;;;;;;;10.48;5.53;;;;;;;17.03;100.00;101380.88;5096770;28;20057;-64
2023/07/20 04:57:00;;;;;;;9.32;5.20;;;;;;;17.00;100.00;101382.28;5112763;28;20402;-65
2023/07/20 04:59:28;;;;;;;8.65;5.60;;;;;;;17.02;100.00;101380.03;5109986;28;20043;-65
2023/07/20 05:01:56;;;;;;;10.77;5.90;;;;;;;17.07;100.00;101386.56;5112154;28;20047;-65
2023/07/20 05:04:24;;;;;;;8.98;5.35;;;;;;;17.08;100.00;101377.19;5113233;28;20495;-63
2023/07/20 05:06:56;;;;;;;8.35;5.82;;;;;;;17.07;100.00;101376.38;5091609;28;20054;-65
2023/07/20 05:09:24;;;;;;;10.77;5.47;;;;;;;17.06;100.00;101374.75;5113192;28;20551;-65
2023/07/20 05:11:52;;;;;;;10.88;5.57;;;;;;;17.06;100.00;101373.94;5111259;28;20044;-66
2023/07/20 05:14:20;;;;;;;8.23;5.68;;;;;;;17.06;100.00;101373.94;5094781;28;20054;-65
2023/07/20 05:16:50;;;;;;;11.05;5.13;;;;;;;17.03;100.00;101369.84;5090435;28;20043;-65
2023/07/20 05:19:18;;;;;;;8.82;5.43;;;;;;;17.06;100.00;101379.44;5107310;28;20423;-64
2023/07/20 05:21:46;;;;;;;9.35;5.50;;;;;;;17.09;100.00;101373.34;5102777;28;20039;-64
2023/07/20 05:24:15;;;;;;;10.68;5.03;;;;;;;17.07;100.00;101383.81;5112666;28;20043;-64
2023/07/20 05:26:43;;;;;;;10.18;5.40;;;;;;;17.02;100.00;101379.22;5093694;28;20042;-64
2023/07/20 05:29:10;;;;;;;8.65;5.30;;;;;;;16.98;100.00;101384.50;5101734;28;20052;-65
2023/07/20 05:31:38;;;;;;;8.38;5.32;;;;;;;16.88;100.00;101387.38;5101942;28;20066;-65
2023/07/20 05:34:06;;;;;;;10.45;5.28;;;;;;;16.73;100.00;101398.56;5105434;28;20048;-64
2023/07/20 05:36:34;;;;;;;8.13;4.78;;;;;;;16.75;100.00;101390.84;5106545;28;20484;-64
2023/07/20 05:39:02;;;;;;;10.45;5.20;;;;;;;16.80;100.00;101396.31;5095937;28;20047;-65
2023/07/20 05:41:30;;;;;;;11.90;5.75;;;;;;;16.81;100.00;101392.44;5096489;28;20053;-62
2023/07/20 05:43:58;;;;;;;9.77;5.72;;;;;;;16.81;100.00;101389.69;5115460;28;20051;-64
2023/07/20 05:46:26;;;;;;;8.82;5.65;;;;;;;16.79;100.00;101380.94;5114540;28;20039;-63
2023/07/20 05:49:02;;;;;;;10.82;6.03;;;;;;;16.77;100.00;101389.44;5114680;28;20040;-64
2023/07/20 05:51:30;;;;;;;11.02;6.25;;;;;;;16.74;100.00;101397.44;5113960;28;20050;-64
2023/07/20 05:54:01;;;;;;;11.93;6.28;;;;;;;16.76;100.00;101406.22;5113921;28;20044;-63
2023/07/20 05:56:29;;;;;;;9.23;6.10;;;;;;;16.82;100.00;101407.84;5113817;28;20452;-64
2023/07/20 05:58:57;;;;;;;9.20;6.22;;;;;;;16.89;100.00;101413.81;4404310;28;10000131;-66
2023/07/20 06:01:27;;;;;;;8.90;5.68;;;;;;;16.86;100.00;101413.56;5105940;28;20493;-65
2023/07/20 06:03:55;;;;;;;8.18;5.47;;;;;;;16.85;100.00;101421.00;5108448;28;20048;-66
2023/07/20 06:06:23;;;;;;;9.68;5.25;;;;;;;16.90;100.00;101420.13;5107730;28;20040;-66
2023/07/20 06:08:51;;;;;;;11.25;6.22;;;;;;;16.97;100.00;101418.63;5099245;28;20056;-67
2023/07/20 06:11:19;;;;;;;9.93;5.75;;;;;;;17.02;100.00;101418.56;5079654;28;20074;-66
2023/07/20 06:13:46;;;;;;;8.55;5.50;;;;;;;16.98;100.00;101423.06;5110309;28;20499;-66
2023/07/20 06:16:14;;;;;;;8.60;5.95;;;;;;;16.99;100.00;101421.91;5096656;28;20040;-65
2023/07/20 06:18:42;;;;;;;7.53;5.40;;;;;;;16.98;100.00;101420.28;5093346;28;20163;-65
2023/07/20 06:21:10;;;;;;;9.38;5.63;;;;;;;16.95;100.00;101423.63;5104803;28;20054;-66
2023/07/20 06:23:39;;;;;;;9.07;5.55;;;;;;;16.93;100.00;101420.38;5105392;28;20046;-64
2023/07/20 06:26:07;;;;;;;8.93;4.88;;;;;;;16.98;100.00;101423.06;5114310;28;20061;-62
2023/07/20 06:28:36;;;;;;;8.95;5.97;;;;;;;17.03;100.00;101431.22;5120661;28;20134;-64
2023/07/20 06:31:04;;;;;;;8.68;5.00;;;;;;;17.05;100.00;101417.16;5120741;28;21653;-65
2023/07/20 06:33:32;;;;;;;9.77;5.60;;;;;;;17.09;100.00;101426.47;5112319;28;20047;-64
2023/07/20 06:35:59;;;;;;;9.57;5.93;;;;;;;17.09;100.00;101426.47;5112922;28;20051;-65
2023/07/20 06:38:28;;;;;;;8.60;5.20;;;;;;;17.09;100.00;101425.66;5098304;28;20143;-65
2023/07/20 06:40:59;;;;;;;5.97;3.88;;;;;;;17.14;100.00;101433.84;5111933;28;20177;-65
2023/07/20 06:43:47;;;;;;;8.52;5.70;;;;;;;17.21;100.00;101428.78;5094593;28;20059;-65
2023/07/20 06:46:16;;;;;;;8.23;5.40;;;;;;;17.22;100.00;101428.50;5092807;28;20393;-64
2023/07/20 06:48:44;;;;;;;7.63;5.30;;;;;;;17.21;100.00;101426.03;5094089;28;20445;-65
2023/07/20 06:51:15;;;;;;;8.43;5.72;;;;;;;17.22;100.00;101422.13;5099430;28;20455;-64
2023/07/20 06:53:43;;;;;;;12.75;5.35;;;;;;;17.20;100.00;101427.97;5095188;28;20048;-66
2023/07/20 06:56:11;;;;;;;8.40;4.13;;;;;;;17.20;100.00;101429.91;5111947;28;20388;-64
2023/07/20 06:58:39;;;;;;;4.95;3.45;;;;;;;17.24;100.00;101426.25;5099165;28;20043;-65
2023/07/20 07:01:07;;;;;;;7.53;3.35;;;;;;;17.32;100.00;101424.75;5113265;28;20385;-65
2023/07/20 07:03:36;;;;;;;5.00;3.08;;;;;;;17.40;100.00;101418.56;5092078;28;20055;-65
2023/07/20 07:06:04;;;;;;;4.38;3.20;;;;;;;17.46;100.00;101422.88;5093479;28;20046;-64
2023/07/20 07:08:32;;;;;;;6.82;3.25;;;;;;;17.51;100.00;101429.41;5107849;28;20044;-64
2023/07/20 07:11:00;;;;;;;6.05;3.80;;;;;;;17.52;100.00;101420.03;5115685;28;20056;-65
2023/07/20 07:13:28;;;;;;;5.03;3.15;;;;;;;17.55;100.00;101423.00;5116622;28;20035;-64
2023/07/20 07:15:56;;;;;;;6.97;3.35;;;;;;;17.58;100.00;101436.19;5115937;28;20059;-63
2023/07/20 07:18:24;;;;;;;4.97;3.17;;;;;;;17.55;99.64;101430.47;5104910;28;20169;-64
2023/07/20 07:20:53;;;;;;;6.22;3.30;;;;;;;17.51;98.50;101434.91;5101459;28;20118;-65
2023/07/20 07:23:21;;;;;;;7.53;3.15;;;;;;;17.44;99.04;101430.63;5117428;28;20051;-63
2023/07/20 07:25:49;;;;;;;5.15;3.05;;;;;;;17.43;100.00;101436.44;5115443;28;20056;-64
2023/07/20 07:28:17;;;;;;;4.50;2.85;;;;;;;17.48;99.95;101432.78;5116245;28;20059;-64
2023/07/20 07:30:45;;;;;;;6.18;3.22;;;;;;;17.51;98.17;101435.75;5117294;28;20044;-64
2023/07/20 07:33:13;;;;;;;5.32;2.30;;;;;;;17.49;97.02;101431.69;5116300;28;20044;-64
2023/07/20 07:35:41;;;;;;;2.65;2.33;;;;;;;17.55;95.34;101436.78;5116215;28;20055;-63
2023/07/20 07:38:09;;;;;;;3.63;2.10;;;;;;;17.63;95.13;101438.03;5098511;28;20047;-64
2023/07/20 07:40:57;;;;;;;6.53;3.05;;;;;;;17.62;96.63;101442.72;5115813;28;20048;-65
2023/07/20 07:43:25;;;;;;;4.28;2.75;;;;;;;17.63;95.70;101440.78;5115207;28;20047;-64
2023/07/20 07:45:58;;;;;;;2.42;1.80;;;;;;;17.71;96.36;101434.59;5116192;28;20052;-64
2023/07/20 07:48:26;;;;;;;6.47;3.00;;;;;;;17.79;95.06;101433.91;5115205;28;20035;-63
2023/07/20 07:50:54;;;;;;;5.57;2.75;;;;;;;17.80;92.12;101438.34;5063445;28;20383;-63
2023/07/20 07:53:23;;;;;;;5.45;2.88;;;;;;;17.75;91.69;101435.66;5095533;28;20054;-64
2023/07/20 07:55:52;;;;;;;5.68;2.47;;;;;;;17.76;91.53;101442.78;5094345;28;20089;-65
2023/07/20 07:58:20;;;;;;;5.45;2.70;;;;;;;17.84;92.17;101447.63;5093984;28;20040;-64
2023/07/20 08:00:48;;;;;;;7.68;3.00;;;;;;;17.90;91.82;101447.56;5108071;28;20050;-63
2023/07/20 08:03:16;;;;;;;12.45;3.80;;;;;;;17.99;91.97;101454.00;5100086;28;20040;-63
2023/07/20 08:05:44;;;;;;;7.22;3.10;;;;;;;18.04;91.34;101453.94;5112263;27;20054;-64
2023/07/20 08:08:12;;;;;;;5.53;2.22;;;;;;;18.00;89.71;101455.66;5115476;28;20479;-64
2023/07/20 08:10:40;;;;;;;4.63;2.10;;;;;;;17.99;89.88;101460.34;5114003;28;20048;-64
2023/07/20 08:13:08;;;;;;;5.65;2.60;;;;;;;17.98;89.52;101455.94;5115556;28;20073;-63
2023/07/20 08:15:37;;;;;;;5.03;2.30;;;;;;;18.00;90.09;101458.41;5116080;28;20479;-63
2023/07/20 08:18:05;;;;;;;5.03;2.60;;;;;;;18.02;91.15;101456.97;5115371;28;20044;-64
2023/07/20 08:20:35;;;;;;;3.45;2.25;;;;;;;18.02;89.71;101462.50;5096120;28;20099;-65
2023/07/20 08:23:03;;;;;;;3.65;2.10;;;;;;;18.03;88.22;101455.03;5115822;28;20044;-64
2023/07/20 08:25:31;;;;;;;5.78;2.40;;;;;;;18.04;87.93;101454.75;5114975;28;20152;-64
2023/07/20 08:28:00;;;;;;;6.70;2.75;;;;;;;18.08;88.87;101461.28;5114895;28;20063;-64
2023/07/20 08:30:40;;;;;;;4.70;2.28;;;;;;;18.09;87.32;101462.94;5130136;27;20044;-63
2023/07/20 08:33:09;;;;;;;4.72;2.40;;;;;;;18.10;87.63;101459.03;5115114;28;20406;-63
2023/07/20 08:35:37;;;;;;;4.32;2.30;;;;;;;18.12;87.57;101458.75;5113248;28;20061;-64
2023/07/20 08:38:05;;;;;;;7.82;2.67;;;;;;;18.13;87.69;101452.09;5097192;28;20039;-62
2023/07/20 08:40:34;;;;;;;5.85;2.40;;;;;;;18.18;88.58;101460.28;5113404;28;20047;-63
2023/07/20 08:43:02;;;;;;;5.25;2.40;;;;;;;18.29;89.09;101458.97;5113673;28;20048;-64
2023/07/20 08:45:33;;;;;;;4.47;2.83;;;;;;;18.29;87.81;101456.22;5114970;28;20044;-62
2023/07/20 08:48:03;;;;;;;5.10;2.33;;;;;;;18.31;87.79;101456.72;5114525;28;20047;-65
2023/07/20 08:50:34;;;;;;;4.68;2.33;;;;;;;18.33;87.94;101450.06;5104128;28;20088;-63
2023/07/20 08:53:02;;;;;;;3.38;2.40;;;;;;;18.33;87.81;101456.44;5113819;28;20091;-64
2023/07/20 08:55:31;;;;;;;6.13;2.42;;;;;;;18.34;87.24;101457.25;5108564;28;20043;-63
2023/07/20 08:58:01;;;;;;;6.97;2.30;;;;;;;18.33;86.16;101456.44;5114648;28;20039;-64
2023/07/20 09:00:29;;;;;;;4.47;2.20;;;;;;;18.29;84.25;101456.22;5112247;28;20036;-62
2023/07/20 09:02:58;;;;;;;5.95;2.30;;;;;;;18.25;83.21;101460.69;5111876;28;20054;-63
2023/07/20 09:05:26;;;;;;;2.33;1.80;;;;;;;18.20;83.55;101451.69;5113267;28;20043;-64
2023/07/20 09:07:54;;;;;;;3.65;2.10;;;;;;;18.16;83.68;101459.78;5114042;28;20513;-64
2023/07/20 09:10:23;;;;;;;5.72;2.28;;;;;;;18.14;83.86;101453.75;5114639;28;20051;-64
2023/07/20 09:12:52;;;;;;;3.33;2.25;;;;;;;18.13;84.36;101457.59;5114946;28;20466;-64
2023/07/20 09:15:20;;;;;;;5.35;2.30;;;;;;;18.10;85.10;101459.03;5114419;28;20372;-63
2023/07/20 09:17:49;;;;;;;4.15;2.20;;;;;;;18.14;85.74;101461.22;5114786;28;20050;-62
2023/07/20 09:20:20;;;;;;;8.88;2.90;;;;;;;18.20;86.78;101455.28;5113782;28;20047;-63
2023/07/20 09:22:52;;;;;;;5.85;2.42;;;;;;;18.27;85.92;101452.94;5112251;28;20495;-64
2023/07/20 09:25:21;;;;;;;4.75;2.40;;;;;;;18.17;85.24;101457.84;5115025;28;20813;-63
2023/07/20 09:27:50;;;;;;;3.63;2.10;;;;;;;18.13;85.46;101459.56;5112308;28;20047;-62
2023/07/20 09:30:19;;;;;;;3.67;2.40;;;;;;;18.14;85.10;101462.03;5112919;28;20490;-63
2023/07/20 09:32:50;;;;;;;4.60;2.58;;;;;;;18.21;85.14;101459.69;5113049;28;20391;-64
2023/07/20 09:35:22;;;;;;;5.60;2.60;;;;;;;18.30;85.41;101457.84;5104561;28;20241;-64
2023/07/20 09:37:59;;;;;;;5.22;2.75;;;;;;;18.31;83.97;101453.16;5093992;28;20136;-66
2023/07/20 09:40:30;;;;;;;5.03;2.20;;;;;;;18.26;81.17;101447.75;5110987;28;20411;-64
2023/07/20 09:43:03;;;;;;;4.97;2.42;;;;;;;18.20;81.61;101444.22;5097408;28;20505;-64
2023/07/20 09:45:36;;;;;;;6.18;2.83;;;;;;;18.23;83.25;101440.06;5097443;28;20048;-64
2023/07/20 09:48:08;;;;;;;6.55;2.10;;;;;;;18.33;83.25;101437.13;5113742;28;20039;-64
2023/07/20 09:50:44;;;;;;;3.35;2.22;;;;;;;18.40;82.11;101439.44;5108545;28;20050;-62
2023/07/20 09:53:13;;;;;;;3.25;2.03;;;;;;;18.46;81.46;101439.06;5070365;28;20048;-63
2023/07/20 09:55:42;;;;;;;6.90;2.90;;;;;;;18.58;82.19;101430.25;5092433;28;20048;-64
2023/07/20 09:58:10;;;;;;;7.47;3.40;;;;;;;18.75;82.76;101435.16;5093634;28;20058;-62
2023/07/20 10:00:39;;;;;;;7.82;3.97;;;;;;;18.88;81.91;101433.53;5091087;28;20043;-64
2023/07/20 10:03:11;;;;;;;12.32;5.13;;;;;;;19.01;81.69;101435.47;5112919;28;20051;-63
2023/07/20 10:05:52;;;;;;;7.93;3.80;;;;;;;19.05;80.30;101432.88;5113333;28;20043;-64
2023/07/20 10:08:23;;;;;;;13.02;5.68;;;;;;;19.09;80.39;101433.91;5094376;28;20036;-65
2023/07/20 10:10:54;;;;;;;3.00;2.63;;;;;;;19.03;77.44;101437.94;5082339;28;20035;-64
2023/07/20 10:13:27;;;;;;;4.10;2.80;;;;;;;18.96;76.60;101430.06;5117422;28;20046;-64
2023/07/20 10:15:59;;;;;;;5.32;2.60;;;;;;;18.90;76.90;101437.59;5099935;28;20047;-62
2023/07/20 10:18:45;;;;;;;3.58;2.55;;;;;;;18.85;77.34;101445.19;5115823;28;20444;-61
2023/07/20 10:21:13;;;;;;;4.18;2.72;;;;;;;18.79;75.93;101436.22;5115259;28;20042;-64
2023/07/20 10:23:44;;;;;;;5.90;2.90;;;;;;;18.78;76.69;101434.56;5099931;28;20368;-63
2023/07/20 10:26:11;;;;;;;4.68;2.70;;;;;;;18.76;76.02;101436.84;5117597;28;20124;-64
2023/07/20 10:28:39;;;;;;;6.25;3.22;;;;;;;18.75;75.91;101435.16;4406349;28;10021557;-64
2023/07/20 10:31:12;;;;;;;4.55;2.90;;;;;;;18.77;76.55;101423.84;5112893;28;20057;-64
2023/07/20 10:33:40;;;;;;;3.90;2.78;;;;;;;18.81;76.73;101422.09;5095473;28;20047;-64
2023/07/20 10:36:08;;;;;;;4.53;2.58;;;;;;;18.87;76.46;101418.09;5112431;28;20058;-63
2023/07/20 10:38:39;;;;;;;5.47;2.72;;;;;;;18.95;75.30;101420.13;5111800;28;20039;-64
2023/07/20 10:41:28;;;;;;;4.20;2.90;;;;;;;19.04;75.35;101420.22;5110117;28;20051;-65
2023/07/20 10:44:02;;;;;;;5.05;2.95;;;;;;;19.13;73.95;101413.63;5095420;28;20055;-64
2023/07/20 10:46:45;;;;;;;4.90;3.00;;;;;;;19.20;71.77;101417.94;5093521;28;20059;-64
2023/07/20 10:49:15;;;;;;;3.22;2.45;;;;;;;19.24;72.07;101410.63;5092778;28;20052;-65
2023/07/20 10:51:47;;;;;;;3.90;2.00;;;;;;;19.25;72.75;101406.75;5112777;28;20567;-65
2023/07/20 10:54:19;;;;;;;7.35;4.28;;;;;;;19.26;72.99;101417.47;5104573;28;20138;-64
2023/07/20 10:56:50;;;;;;;4.28;2.95;;;;;;;19.28;73.59;101406.13;5127293;28;20188;-65
2023/07/20 10:59:25;;;;;;;6.85;2.58;;;;;;;19.42;75.49;101401.34;5118129;28;20127;-64
2023/07/20 11:01:59;;;;;;;7.82;3.10;;;;;;;19.58;75.77;101388.78;5112977;28;20510;-65
2023/07/20 11:04:43;;;;;;;4.68;2.70;;;;;;;19.64;73.61;101399.72;5103052;28;20644;-63
2023/07/20 11:07:17;;;;;;;6.82;3.28;;;;;;;19.57;71.29;101400.97;5120792;28;20103;-64
2023/07/20 11:09:44;;;;;;;4.47;2.55;;;;;;;19.54;70.23;101401.59;5116761;28;20061;-64
2023/07/20 11:12:17;;;;;;;4.43;2.20;;;;;;;19.59;70.68;101397.91;5094758;28;20051;-64
2023/07/20 11:15:06;;;;;;;4.20;2.20;;;;;;;19.54;66.56;101407.13;5113028;28;20052;-66
2023/07/20 11:17:35;;;;;;;5.18;2.40;;;;;;;19.55;69.53;101406.03;5113680;28;20476;-64
2023/07/20 11:20:04;;;;;;;7.75;2.60;;;;;;;19.51;69.75;101396.72;5116501;28;20043;-63
2023/07/20 11:22:36;;;;;;;3.75;2.35;;;;;;;19.48;69.27;101394.59;5099314;28;20044;-64
2023/07/20 11:25:05;;;;;;;3.22;2.13;;;;;;;19.51;69.25;101396.72;5114745;28;20055;-65
2023/07/20 11:27:33;;;;;;;5.38;2.30;;;;;;;19.49;68.68;101387.91;5087439;28;20511;-64